createdAt,value
2022-12-15T00:01:59.216Z,-2.10
2022-12-15T00:04:44.306Z,-2.00
2022-12-15T00:07:29.737Z,-2.00
2022-12-15T00:10:14.909Z,-2.00
2022-12-15T00:13:00.255Z,-1.90
2022-12-15T00:15:45.744Z,-2.00
2022-12-15T00:18:30.808Z,-2.00
2022-12-15T00:21:17.335Z,-2.00
2022-12-15T00:24:02.542Z,-2.00
2022-12-15T00:26:47.974Z,-2.00
2022-12-15T00:29:33.407Z,-2.00
2022-12-15T00:32:18.711Z,-1.90
2022-12-15T00:35:04.204Z,-1.90
2022-12-15T00:37:49.746Z,-1.90
2022-12-15T00:40:16.613Z,-1.80
2022-12-15T00:42:43.246Z,-1.80
2022-12-15T00:45:10.475Z,-1.80
2022-12-15T00:47:37.253Z,-1.70
2022-12-15T00:50:23.388Z,-1.80
2022-12-15T00:53:08.655Z,-1.80
2022-12-15T00:55:54.146Z,-1.90
2022-12-15T00:58:39.502Z,-2.00
2022-12-15T01:01:28.020Z,-2.00
2022-12-15T01:04:13.897Z,-2.10
2022-12-15T01:06:59.263Z,-2.20
2022-12-15T01:09:44.654Z,-2.20
2022-12-15T01:12:30.217Z,-2.20
2022-12-15T01:15:15.595Z,-2.20
2022-12-15T01:18:00.918Z,-2.20
2022-12-15T01:20:27.666Z,-2.10
2022-12-15T01:22:55.370Z,-2.10
2022-12-15T01:25:24.132Z,-2.00
2022-12-15T01:27:51.160Z,-2.00
2022-12-15T01:30:22.334Z,-2.00
2022-12-15T01:32:49.464Z,-2.00
2022-12-15T01:35:17.575Z,-2.00
2022-12-15T01:37:45.180Z,-1.90
2022-12-15T01:40:44.471Z,-1.90
2022-12-15T01:43:24.338Z,-1.90
2022-12-15T01:45:50.977Z,-1.80
2022-12-15T01:48:37.913Z,-1.90
2022-12-15T01:51:31.957Z,-1.90
2022-12-15T01:54:07.383Z,-1.90
2022-12-15T01:56:54.049Z,-2.00
2022-12-15T01:59:31.457Z,-2.10
2022-12-15T02:01:58.524Z,-2.10
2022-12-15T02:04:25.673Z,-2.20
2022-12-15T02:06:53.028Z,-2.20
2022-12-15T02:09:21.564Z,-2.30
2022-12-15T02:12:25.734Z,-2.30
2022-12-15T02:15:09.332Z,-2.30
2022-12-15T02:17:50.811Z,-2.40
2022-12-15T02:20:43.953Z,-2.40
2022-12-15T02:23:38.175Z,-2.50
2022-12-15T02:26:07.954Z,-2.60
2022-12-15T02:29:01.484Z,-2.60
2022-12-15T02:31:49.818Z,-2.60
2022-12-15T02:34:47.918Z,-2.70
2022-12-15T02:37:32.809Z,-2.70
2022-12-15T02:39:59.531Z,-2.80
2022-12-15T02:42:28.431Z,-2.80
2022-12-15T02:44:58.460Z,-2.80
2022-12-15T02:48:02.085Z,-2.80
2022-12-15T02:50:50.204Z,-2.80
2022-12-15T02:54:03.300Z,-2.90
2022-12-15T02:56:34.504Z,-2.90
2022-12-15T02:59:13.319Z,-3.00
2022-12-15T03:01:59.570Z,-3.00
2022-12-15T03:04:27.414Z,-3.00
2022-12-15T03:07:01.291Z,-3.10
2022-12-15T03:09:28.569Z,-3.00
2022-12-15T03:11:55.234Z,-3.00
2022-12-15T03:14:22.059Z,-3.10
2022-12-15T03:16:48.793Z,-3.10
2022-12-15T03:19:15.508Z,-3.20
2022-12-15T03:21:42.202Z,-3.20
2022-12-15T03:24:09.108Z,-3.20
2022-12-15T03:26:36.113Z,-3.30
2022-12-15T03:29:03.035Z,-3.30
2022-12-15T03:31:30.019Z,-3.30
2022-12-15T03:33:57.280Z,-3.30
2022-12-15T03:36:23.929Z,-3.40
2022-12-15T03:38:50.578Z,-3.50
2022-12-15T03:41:20.006Z,-3.50
2022-12-15T03:43:46.676Z,-3.50
2022-12-15T03:46:16.683Z,-3.60
2022-12-15T03:48:43.581Z,-3.60
2022-12-15T03:51:10.520Z,-3.60
2022-12-15T03:53:37.247Z,-3.70
2022-12-15T03:56:04.046Z,-3.80
2022-12-15T03:58:30.781Z,-3.80
2022-12-15T04:00:57.541Z,-3.80
2022-12-15T04:03:24.498Z,-3.90
2022-12-15T04:05:51.421Z,-3.90
2022-12-15T04:08:18.132Z,-3.90
2022-12-15T04:10:44.820Z,-4.00
2022-12-15T04:13:12.056Z,-4.00
2022-12-15T04:15:39.933Z,-4.10
2022-12-15T04:18:12.442Z,-4.20
2022-12-15T04:20:40.486Z,-4.30
2022-12-15T04:23:07.850Z,-4.30
2022-12-15T04:25:53.732Z,-4.30
2022-12-15T04:28:39.619Z,-4.30
2022-12-15T04:31:40.445Z,-4.30
2022-12-15T04:34:37.495Z,-4.40
2022-12-15T04:37:29.018Z,-4.40
2022-12-15T04:40:14.721Z,-4.50
2022-12-15T04:43:03.722Z,-4.50
2022-12-15T04:45:49.275Z,-4.40
2022-12-15T04:48:34.518Z,-4.30
2022-12-15T04:51:20.026Z,-4.20
2022-12-15T04:54:05.623Z,-4.10
2022-12-15T04:56:51.118Z,-4.20
2022-12-15T04:59:36.527Z,-4.10
2022-12-15T05:02:22.078Z,-4.20
2022-12-15T05:05:07.432Z,-4.20
2022-12-15T05:07:52.946Z,-4.20
2022-12-15T05:10:38.378Z,-4.40
2022-12-15T05:13:27.609Z,-4.50
2022-12-15T05:16:13.142Z,-4.60
2022-12-15T05:18:58.323Z,-4.70
2022-12-15T05:21:43.915Z,-4.70
2022-12-15T05:24:29.323Z,-4.70
2022-12-15T05:27:14.636Z,-4.70
2022-12-15T05:30:00.245Z,-4.70
2022-12-15T05:32:26.928Z,-4.60
2022-12-15T05:34:53.652Z,-4.60
2022-12-15T05:37:20.370Z,-4.70
2022-12-15T05:39:47.061Z,-4.60
2022-12-15T05:42:13.693Z,-4.70
2022-12-15T05:44:40.720Z,-4.70
2022-12-15T05:47:09.115Z,-4.80
2022-12-15T05:49:35.782Z,-4.80
2022-12-15T05:52:02.836Z,-4.80
2022-12-15T05:54:29.653Z,-4.70
2022-12-15T05:56:56.338Z,-4.80
2022-12-15T05:59:23.031Z,-4.90
2022-12-15T06:01:49.801Z,-5.00
2022-12-15T06:04:16.628Z,-5.10
2022-12-15T06:06:43.305Z,-5.00
2022-12-15T06:09:10.499Z,-5.00
2022-12-15T06:11:37.522Z,-5.00
2022-12-15T06:14:04.438Z,-5.10
2022-12-15T06:16:31.337Z,-5.20
2022-12-15T06:19:01.118Z,-5.40
2022-12-15T06:21:35.332Z,-5.40
2022-12-15T06:24:03.809Z,-5.30
2022-12-15T06:26:39.209Z,-5.20
2022-12-15T06:29:08.565Z,-5.30
2022-12-15T06:31:36.524Z,-5.50
2022-12-15T06:34:08.643Z,-5.50
2022-12-15T06:36:36.029Z,-5.60
2022-12-15T06:39:05.061Z,-5.50
2022-12-15T06:41:32.125Z,-5.50
2022-12-15T06:43:59.507Z,-5.60
2022-12-15T06:46:28.639Z,-5.60
2022-12-15T06:48:55.876Z,-5.60
2022-12-15T06:51:22.719Z,-5.60
2022-12-15T06:53:50.785Z,-5.50
2022-12-15T06:56:33.950Z,-5.60
2022-12-15T06:59:03.339Z,-5.70
2022-12-15T07:01:30.971Z,-5.70
2022-12-15T07:04:00.132Z,-5.70
2022-12-15T07:06:28.235Z,-5.80
2022-12-15T07:08:56.652Z,-5.70
2022-12-15T07:11:24.118Z,-5.60
2022-12-15T07:13:52.909Z,-5.70
2022-12-15T07:16:22.075Z,-5.70
2022-12-15T07:18:48.877Z,-5.70
2022-12-15T07:21:15.568Z,-5.70
2022-12-15T07:23:58.275Z,-5.60
2022-12-15T07:26:26.002Z,-5.60
2022-12-15T07:28:53.543Z,-5.60
2022-12-15T07:31:21.088Z,-5.60
2022-12-15T07:33:48.351Z,-5.50
2022-12-15T07:36:15.342Z,-5.50
2022-12-15T07:38:42.082Z,-5.50
2022-12-15T07:41:09.671Z,-5.50
2022-12-15T07:43:37.453Z,-5.40
2022-12-15T07:46:05.494Z,-5.30
2022-12-15T07:48:33.172Z,-5.20
2022-12-15T07:51:11.135Z,-5.00
2022-12-15T07:53:39.902Z,-4.90
2022-12-15T07:56:09.341Z,-4.80
2022-12-15T07:58:37.386Z,-4.70
2022-12-15T08:01:06.863Z,-4.60
2022-12-15T08:03:35.794Z,-4.60
2022-12-15T08:06:11.805Z,-4.50
2022-12-15T08:08:39.227Z,-4.40
2022-12-15T08:11:07.577Z,-4.30
2022-12-15T08:16:21.911Z,-4.30
2022-12-15T08:18:48.816Z,-4.30
2022-12-15T08:21:16.099Z,-4.10
2022-12-15T08:23:42.766Z,-3.90
2022-12-15T08:26:15.006Z,-3.70
2022-12-15T08:28:43.175Z,-3.60
2022-12-15T08:31:12.961Z,-3.50
2022-12-15T08:33:39.842Z,-3.60
2022-12-15T08:36:09.587Z,-3.40
2022-12-15T08:38:38.641Z,-3.20
2022-12-15T08:41:19.140Z,-2.90
2022-12-15T08:43:49.206Z,-2.80
2022-12-15T08:46:17.932Z,-2.60
2022-12-15T08:48:45.075Z,-2.40
2022-12-15T08:51:12.230Z,-2.60
2022-12-15T08:53:39.179Z,-2.80
2022-12-15T08:56:12.196Z,-2.80
2022-12-15T08:58:39.411Z,-2.60
2022-12-15T09:01:09.345Z,-2.60
2022-12-15T09:03:37.440Z,-2.50
2022-12-15T09:06:12.181Z,-2.50
2022-12-15T09:08:38.935Z,-2.80
2022-12-15T09:11:05.838Z,-2.60
2022-12-15T09:13:33.201Z,-2.30
2022-12-15T09:16:11.575Z,-2.20
2022-12-15T09:18:38.942Z,-1.90
2022-12-15T09:21:07.456Z,-2.10
2022-12-15T09:23:36.450Z,-2.00
2022-12-15T09:26:14.745Z,-2.00
2022-12-15T09:28:42.890Z,-2.10
2022-12-15T09:31:28.750Z,-2.40
2022-12-15T09:33:58.216Z,-2.40
2022-12-15T09:36:26.252Z,-2.50
2022-12-15T09:38:53.219Z,-2.70
2022-12-15T09:41:29.830Z,-3.00
2022-12-15T09:44:02.003Z,-2.80
2022-12-15T09:46:50.714Z,-2.70
2022-12-15T09:49:42.068Z,-2.40
2022-12-15T09:52:14.667Z,-2.50
2022-12-15T09:54:43.673Z,-2.40
2022-12-15T09:57:23.647Z,-2.50
2022-12-15T10:00:15.517Z,-2.50
2022-12-15T10:03:10.240Z,-2.60
2022-12-15T10:06:17.665Z,-2.70
2022-12-15T10:08:50.705Z,-2.70
2022-12-15T10:11:36.165Z,-2.60
2022-12-15T10:14:12.165Z,-2.50
2022-12-15T10:17:15.379Z,-2.30
2022-12-15T10:19:56.676Z,-2.20
2022-12-15T10:22:32.264Z,-2.10
2022-12-15T10:25:14.056Z,-2.30
2022-12-15T10:28:05.006Z,-2.10
2022-12-15T10:30:32.914Z,-2.20
2022-12-15T10:33:03.795Z,-2.10
2022-12-15T10:35:36.091Z,-1.90
2022-12-15T10:38:15.224Z,-2.10
2022-12-15T10:40:55.507Z,-1.90
2022-12-15T10:43:44.685Z,-1.80
2022-12-15T10:46:28.698Z,-2.00
2022-12-15T10:49:19.554Z,-2.10
2022-12-15T10:51:57.145Z,-2.60
2022-12-15T10:54:27.271Z,-2.60
2022-12-15T10:56:56.768Z,-2.70
2022-12-15T10:59:23.441Z,-2.70
2022-12-15T11:01:51.402Z,-2.80
2022-12-15T11:04:33.795Z,-2.60
2022-12-15T11:07:03.042Z,-2.60
2022-12-15T11:09:38.609Z,-2.60
2022-12-15T11:12:43.560Z,-2.40
2022-12-15T11:15:51.109Z,-2.20
2022-12-15T11:18:29.623Z,-2.10
2022-12-15T11:21:09.798Z,-1.90
2022-12-15T11:23:48.747Z,-1.80
2022-12-15T11:26:31.227Z,-2.00
2022-12-15T11:29:18.005Z,-1.80
2022-12-15T11:31:45.694Z,-1.80
2022-12-15T11:34:18.325Z,-1.90
2022-12-15T11:37:06.626Z,-1.80
2022-12-15T11:40:00.877Z,-1.70
2022-12-15T11:42:54.903Z,-1.80
2022-12-15T11:45:52.424Z,-1.90
2022-12-15T11:48:22.350Z,-2.10
2022-12-15T11:51:13.942Z,-2.10
2022-12-15T11:54:07.177Z,-1.90
2022-12-15T11:56:39.115Z,-1.80
2022-12-15T11:59:27.544Z,-1.60
2022-12-15T12:02:03.756Z,-1.50
2022-12-15T12:04:52.406Z,-1.60
2022-12-15T12:08:14.386Z,-1.50
2022-12-15T12:11:04.751Z,-1.50
2022-12-15T12:14:02.577Z,-1.20
2022-12-15T12:16:38.607Z,-1.40
2022-12-15T12:19:14.189Z,-1.20
2022-12-15T12:21:45.082Z,-1.40
2022-12-15T12:24:29.715Z,-1.70
2022-12-15T12:27:29.027Z,-1.30
2022-12-15T12:30:11.903Z,-1.10
2022-12-15T12:32:51.944Z,-1.30
2022-12-15T12:38:29.638Z,-1.30
2022-12-15T12:41:12.126Z,-1.40
2022-12-15T12:43:50.156Z,-1.30
2022-12-15T12:46:26.870Z,-1.30
2022-12-15T12:49:33.366Z,-1.00
2022-12-15T12:52:04.115Z,-0.90
2022-12-15T12:54:36.843Z,-1.20
2022-12-15T12:57:12.845Z,-1.40
2022-12-15T12:59:43.566Z,-1.60
2022-12-15T13:02:22.301Z,-1.90
2022-12-15T13:04:58.627Z,-1.90
2022-12-15T13:07:37.721Z,-2.10
2022-12-15T13:10:19.712Z,-1.90
2022-12-15T13:12:54.177Z,-1.90
2022-12-15T13:15:27.241Z,-1.90
2022-12-15T13:18:08.520Z,-2.00
2022-12-15T13:20:37.457Z,-2.10
2022-12-15T13:23:19.473Z,-2.10
2022-12-15T13:26:06.369Z,-2.00
2022-12-15T13:28:35.994Z,-1.90
2022-12-15T13:31:18.598Z,-1.90
2022-12-15T13:33:52.377Z,-2.00
2022-12-15T13:36:37.733Z,-1.90
2022-12-15T13:39:12.214Z,-2.10
2022-12-15T13:42:00.268Z,-2.50
2022-12-15T13:44:41.517Z,-2.50
2022-12-15T13:47:28.604Z,-2.50
2022-12-15T13:50:02.086Z,-2.30
2022-12-15T13:53:16.646Z,-2.40
2022-12-15T13:55:37.418Z,-2.60
2022-12-15T13:58:14.551Z,-2.80
2022-12-15T14:00:52.948Z,-2.80
2022-12-15T14:03:20.427Z,-2.80
2022-12-15T14:05:58.787Z,-2.80
2022-12-15T14:08:28.507Z,-2.90
2022-12-15T14:11:06.963Z,-3.00
2022-12-15T14:13:46.858Z,-2.70
2022-12-15T14:16:21.579Z,-2.50
2022-12-15T14:19:14.807Z,-2.40
2022-12-15T14:21:56.069Z,-2.40
2022-12-15T14:24:38.493Z,-2.50
2022-12-15T14:27:06.179Z,-2.40
2022-12-15T14:29:32.970Z,-2.40
2022-12-15T14:32:00.302Z,-2.40
2022-12-15T14:34:30.104Z,-2.50
2022-12-15T14:37:00.029Z,-2.80
2022-12-15T14:39:33.557Z,-2.90
2022-12-15T14:42:01.776Z,-2.80
2022-12-15T14:44:43.883Z,-2.70
2022-12-15T14:47:28.659Z,-2.60
2022-12-15T14:49:58.077Z,-2.50
2022-12-15T14:52:33.743Z,-2.60
2022-12-15T14:55:03.349Z,-2.90
2022-12-15T14:57:46.760Z,-3.00
2022-12-15T15:00:27.035Z,-3.00
2022-12-15T15:03:09.926Z,-1.40
2022-12-15T15:05:57.448Z,-3.20
2022-12-15T15:08:34.030Z,-3.20
2022-12-15T15:11:23.916Z,-3.10
2022-12-15T15:13:56.106Z,-3.10
2022-12-15T15:16:23.430Z,-3.10
2022-12-15T15:18:52.851Z,-3.50
2022-12-15T15:21:26.051Z,-3.50
2022-12-15T15:24:18.312Z,-3.60
2022-12-15T15:26:45.046Z,-3.50
2022-12-15T15:29:41.677Z,-3.60
2022-12-15T15:32:17.255Z,-3.50
2022-12-15T15:34:44.975Z,-3.50
2022-12-15T15:37:24.626Z,-3.60
2022-12-15T15:39:55.222Z,-3.50
2022-12-15T15:42:25.473Z,-3.50
2022-12-15T15:44:57.233Z,-3.50
2022-12-15T15:47:27.477Z,-3.50
2022-12-15T15:49:58.137Z,-3.70
2022-12-15T15:52:24.979Z,-3.70
2022-12-15T15:54:53.059Z,-3.60
2022-12-15T15:57:19.847Z,-3.50
2022-12-15T15:59:46.999Z,-3.40
2022-12-15T16:02:14.888Z,-3.50
2022-12-15T16:04:42.936Z,-3.60
2022-12-15T16:07:24.002Z,-3.60
2022-12-15T16:09:52.117Z,-3.60
2022-12-15T16:12:43.398Z,-3.60
2022-12-15T16:15:18.468Z,-3.70
2022-12-15T16:17:45.616Z,-3.60
2022-12-15T16:20:14.838Z,-3.40
2022-12-15T16:22:44.021Z,-3.40
2022-12-15T16:25:17.114Z,-3.30
2022-12-15T16:27:44.107Z,-3.40
2022-12-15T16:30:19.971Z,-3.30
2022-12-15T16:32:46.711Z,-3.30
2022-12-15T16:35:13.541Z,-3.20
2022-12-15T16:37:46.429Z,-3.20
2022-12-15T16:40:16.437Z,-3.10
2022-12-15T16:42:47.079Z,-3.20
2022-12-15T16:45:18.517Z,-3.10
2022-12-15T16:47:45.792Z,-3.20
2022-12-15T16:50:15.027Z,-3.20
2022-12-15T16:52:45.920Z,-3.20
2022-12-15T16:55:25.460Z,-3.20
2022-12-15T16:57:55.136Z,-3.10
2022-12-15T17:00:25.920Z,-3.10
2022-12-15T17:02:53.660Z,-3.00
2022-12-15T17:05:21.319Z,-2.90
2022-12-15T17:07:53.215Z,-2.80
2022-12-15T17:10:23.925Z,-2.80
2022-12-15T17:12:52.275Z,-2.70
2022-12-15T17:15:24.640Z,-2.70
2022-12-15T17:17:52.328Z,-2.60
2022-12-15T17:20:30.500Z,-2.50
2022-12-15T17:23:10.400Z,-2.50
2022-12-15T17:28:32.418Z,-2.60
2022-12-15T17:31:00.679Z,-2.70
2022-12-15T17:33:29.912Z,-2.60
2022-12-15T17:36:15.091Z,-2.70
2022-12-15T17:38:41.781Z,-2.90
2022-12-15T17:41:29.064Z,-2.70
2022-12-15T17:44:31.179Z,-3.10
2022-12-15T17:46:46.308Z,-3.20
2022-12-15T17:49:13.228Z,-3.10
2022-12-15T17:51:40.798Z,-3.00
2022-12-15T17:54:12.362Z,-2.90
2022-12-15T17:56:39.157Z,-2.80
2022-12-15T17:59:11.831Z,-3.00
2022-12-15T18:01:38.606Z,-2.90
2022-12-15T18:04:05.334Z,-3.00
2022-12-15T18:06:32.692Z,-3.00
2022-12-15T18:08:59.327Z,-3.10
2022-12-15T18:11:26.154Z,-3.30
2022-12-15T18:13:52.797Z,-3.30
2022-12-15T18:16:19.520Z,-3.20
2022-12-15T18:18:46.766Z,-3.10
2022-12-15T18:21:15.356Z,-3.10
2022-12-15T18:23:42.936Z,-3.20
2022-12-15T18:26:13.179Z,-3.20
2022-12-15T18:28:39.879Z,-3.20
2022-12-15T18:31:20.130Z,-3.10
2022-12-15T18:33:46.845Z,-3.10
2022-12-15T18:36:13.702Z,-3.10
2022-12-15T18:38:40.397Z,-3.00
2022-12-15T18:41:12.828Z,-3.20
2022-12-15T18:43:40.617Z,-3.30
2022-12-15T18:46:12.002Z,-3.30
2022-12-15T18:48:39.739Z,-3.20
2022-12-15T18:51:23.930Z,-3.30
2022-12-15T18:53:50.959Z,-3.30
2022-12-15T18:56:21.385Z,-3.40
2022-12-15T18:58:48.099Z,-3.30
2022-12-15T19:01:15.408Z,-3.30
2022-12-15T19:03:42.124Z,-3.40
2022-12-15T19:06:25.650Z,-3.40
2022-12-15T19:08:52.956Z,-3.30
2022-12-15T19:11:30.756Z,-3.30
2022-12-15T19:13:59.575Z,-3.20
2022-12-15T19:16:27.030Z,-3.50
2022-12-15T19:19:17.182Z,-3.60
2022-12-15T19:22:02.948Z,-3.70
2022-12-15T19:24:50.338Z,-3.60
2022-12-15T19:27:20.096Z,-3.60
2022-12-15T19:29:48.071Z,-3.50
2022-12-15T19:32:14.987Z,-3.50
2022-12-15T19:34:41.617Z,-3.50
2022-12-15T19:37:21.090Z,-3.60
2022-12-15T19:39:47.813Z,-3.60
2022-12-15T19:42:19.404Z,-3.50
2022-12-15T19:44:46.164Z,-3.50
2022-12-15T19:47:13.633Z,-3.50
2022-12-15T19:49:41.250Z,-3.60
2022-12-15T19:52:16.216Z,-3.50
2022-12-15T19:54:44.569Z,-3.50
2022-12-15T19:57:16.781Z,-3.60
2022-12-15T19:59:44.169Z,-3.50
2022-12-15T20:02:18.696Z,-3.40
2022-12-15T20:04:46.627Z,-3.40
2022-12-15T20:07:28.348Z,-3.40
2022-12-15T20:09:55.991Z,-3.40
2022-12-15T20:12:22.702Z,-3.40
2022-12-15T20:14:49.594Z,-3.40
2022-12-15T20:17:16.241Z,-3.40
2022-12-15T20:19:43.986Z,-3.30
2022-12-15T20:22:15.921Z,-3.30
2022-12-15T20:24:43.740Z,-3.20
2022-12-15T20:27:15.888Z,-3.40
2022-12-15T20:29:42.881Z,-3.40
2022-12-15T20:32:20.613Z,-3.50
2022-12-15T20:34:48.195Z,-3.50
2022-12-15T20:37:29.419Z,-3.40
2022-12-15T20:39:57.854Z,-3.40
2022-12-15T20:42:24.937Z,-3.40
2022-12-15T20:44:51.585Z,-3.40
2022-12-15T20:47:26.441Z,-3.50
2022-12-15T20:49:54.824Z,-3.50
2022-12-15T20:52:24.656Z,-3.60
2022-12-15T20:54:52.904Z,-3.60
2022-12-15T20:57:19.781Z,-3.70
2022-12-15T20:59:46.446Z,-3.80
2022-12-15T21:02:19.367Z,-3.90
2022-12-15T21:04:46.498Z,-4.00
2022-12-15T21:07:13.313Z,-3.90
2022-12-15T21:09:40.027Z,-3.90
2022-12-15T21:12:20.974Z,-4.00
2022-12-15T21:14:48.720Z,-3.90
2022-12-15T21:17:18.537Z,-3.90
2022-12-15T21:19:45.828Z,-3.90
2022-12-15T21:22:27.175Z,-4.00
2022-12-15T21:24:56.524Z,-4.00
2022-12-15T21:27:23.348Z,-4.10
2022-12-15T21:29:52.950Z,-4.10
2022-12-15T21:32:20.679Z,-4.10
2022-12-15T21:34:47.421Z,-4.20
2022-12-15T21:37:32.086Z,-4.30
2022-12-15T21:39:59.458Z,-4.30
2022-12-15T21:42:26.772Z,-4.50
2022-12-15T21:44:53.447Z,-4.50
2022-12-15T21:47:48.129Z,-4.50
2022-12-15T21:50:16.517Z,-4.40
2022-12-15T21:52:44.857Z,-4.40
2022-12-15T21:55:15.563Z,-4.40
2022-12-15T21:57:42.319Z,-4.40
2022-12-15T22:00:13.504Z,-4.40
2022-12-15T22:02:40.479Z,-4.50
2022-12-15T22:05:19.500Z,-4.40
2022-12-15T22:07:46.407Z,-4.40
2022-12-15T22:10:13.551Z,-4.40
2022-12-15T22:12:42.348Z,-4.40
2022-12-15T22:15:18.427Z,-4.50
2022-12-15T22:17:45.369Z,-4.50
2022-12-15T22:20:17.424Z,-4.50
2022-12-15T22:22:45.203Z,-4.60
2022-12-15T22:25:25.486Z,-4.60
2022-12-15T22:27:52.503Z,-4.70
2022-12-15T22:30:24.571Z,-4.70
2022-12-15T22:32:51.359Z,-4.70
2022-12-15T22:35:25.268Z,-4.70
2022-12-15T22:37:56.194Z,-4.70
2022-12-15T22:40:24.127Z,-4.70
2022-12-15T22:42:54.907Z,-4.70
2022-12-15T22:45:24.022Z,-4.70
2022-12-15T22:47:53.169Z,-4.80
2022-12-15T22:50:24.689Z,-4.80
2022-12-15T22:52:52.777Z,-4.90
2022-12-15T22:55:24.141Z,-4.90
2022-12-15T22:57:59.052Z,-5.00
2022-12-15T23:00:26.149Z,-5.00
2022-12-15T23:02:52.955Z,-5.00
2022-12-15T23:05:20.415Z,-5.00
2022-12-15T23:07:47.496Z,-5.10
2022-12-15T23:10:34.796Z,-5.00
2022-12-15T23:13:01.441Z,-5.10
2022-12-15T23:15:47.591Z,-5.10
2022-12-15T23:18:14.391Z,-5.10
2022-12-15T23:20:41.571Z,-5.10
2022-12-15T23:23:09.780Z,-5.20
2022-12-15T23:25:36.858Z,-5.20
2022-12-15T23:28:03.731Z,-5.20
2022-12-15T23:30:30.413Z,-5.20
2022-12-15T23:32:57.133Z,-5.20
2022-12-15T23:35:23.814Z,-5.20
2022-12-15T23:37:50.816Z,-5.20
2022-12-15T23:40:22.044Z,-5.20
2022-12-15T23:42:49.881Z,-5.30
2022-12-15T23:45:17.966Z,-5.30
2022-12-15T23:47:44.732Z,-5.30
2022-12-15T23:50:11.625Z,-5.50
2022-12-15T23:52:38.319Z,-5.50
2022-12-15T23:55:07.887Z,-5.40
2022-12-15T23:57:35.446Z,-5.40
